Time;durP1;ratioP1;P1;durP2;ratioP2;P2;SDS_P1;SDS_P2;PMS_P1;PMS_P2;Temp;Humidity;BMP_temperature;BMP_pressure;BME280_temperature;BME280_humidity;BME280_pressure;Samples;Min_cycle;Max_cycle;Signal;HPM_P1;HPM_P2
2022/05/13 00:00:04;;;;;;;7.40;2.40;;;14.90;56.20;;;;;;5093974;28;20200;-85
2022/05/13 00:02:30;;;;;;;11.90;3.25;;;14.90;56.60;;;;;;5095435;28;20172;-85
2022/05/13 00:04:55;;;;;;;8.23;3.03;;;14.80;57.30;;;;;;5077502;28;20229;-85
2022/05/13 00:07:21;;;;;;;15.47;2.53;;;14.80;57.90;;;;;;5094658;28;20205;-85
2022/05/13 00:09:56;;;;;;;6.80;2.63;;;14.80;58.60;;;;;;5095005;28;20438;-85
2022/05/13 00:12:26;;;;;;;6.80;2.45;;;14.80;58.80;;;;;;5093686;28;20486;-85
2022/05/13 00:14:53;;;;;;;14.23;2.83;;;14.70;59.00;;;;;;5095703;28;20164;-85
2022/05/13 00:17:20;;;;;;;9.45;2.90;;;14.70;59.40;;;;;;5093840;28;20254;-85
2022/05/13 00:19:47;;;;;;;15.45;3.78;;;14.70;59.40;;;;;;5095391;28;20196;-85
2022/05/13 00:22:13;;;;;;;4.65;2.20;;;14.70;59.40;;;;;;5099985;28;20175;-86
2022/05/13 00:24:39;;;;;;;7.55;2.35;;;14.60;59.40;;;;;;5115061;28;20179;-86
2022/05/13 00:27:16;;;;;;;8.00;1.95;;;14.70;59.60;;;;;;5114074;28;20175;-85
2022/05/13 00:29:42;;;;;;;6.30;2.85;;;14.70;60.20;;;;;;5115997;28;20726;-86
2022/05/13 00:32:08;;;;;;;4.83;2.17;;;14.60;59.60;;;;;;5115869;28;20619;-85
2022/05/13 00:34:34;;;;;;;10.10;2.45;;;14.60;59.70;;;;;;5115935;28;20171;-85
2022/05/13 00:37:00;;;;;;;5.60;2.60;;;14.60;60.20;;;;;;5116705;28;20796;-86
2022/05/13 00:39:26;;;;;;;8.50;2.20;;;14.60;60.00;;;;;;5121321;28;20187;-85
2022/05/13 00:41:53;;;;;;;3.92;1.90;;;14.60;60.10;;;;;;5124258;28;20183;-85
2022/05/13 00:44:21;;;;;;;4.78;2.42;;;14.50;60.40;;;;;;5126463;28;20190;-85
2022/05/13 00:46:48;;;;;;;6.30;2.90;;;14.50;60.70;;;;;;5135026;28;20456;-84
2022/05/13 00:49:16;;;;;;;4.85;2.20;;;14.40;61.10;;;;;;5127089;28;20191;-84
2022/05/13 00:51:48;;;;;;;13.48;3.08;;;14.40;61.60;;;;;;5123667;28;20186;-84
2022/05/13 00:54:16;;;;;;;15.85;2.67;;;14.40;61.80;;;;;;5115661;28;20163;-85
2022/05/13 00:56:45;;;;;;;11.35;3.03;;;14.30;62.10;;;;;;5115082;28;20224;-84
2022/05/13 00:59:15;;;;;;;10.20;3.17;;;14.40;62.80;;;;;;5114878;28;20244;-85
2022/05/13 01:01:40;;;;;;;8.70;2.72;;;14.40;63.10;;;;;;5115473;28;20238;-87
2022/05/13 01:04:10;;;;;;;8.33;2.90;;;14.30;63.10;;;;;;5115497;28;20712;-86
2022/05/13 01:06:37;;;;;;;11.82;2.75;;;14.30;63.30;;;;;;5096274;28;20167;-86
2022/05/13 01:09:03;;;;;;;13.23;3.10;;;14.30;63.70;;;;;;5113257;28;20203;-86
2022/05/13 01:11:34;;;;;;;11.77;3.05;;;14.30;63.70;;;;;;5112835;28;20580;-86
2022/05/13 01:14:08;;;;;;;4.75;2.33;;;14.30;63.90;;;;;;5113175;28;20194;-86
2022/05/13 01:18:05;;;;;;;7.35;3.00;;;14.40;63.60;;;;;;5114589;28;20229;-86
2022/05/13 01:19:20;;;;;;;13.15;2.70;;;14.40;63.50;;;;;;5114386;28;20206;-86
2022/05/13 01:21:48;;;;;;;12.97;3.20;;;14.40;63.30;;;;;;5112987;28;20171;-86
2022/05/13 01:24:15;;;;;;;13.68;3.80;;;14.30;63.20;;;;;;5114064;28;20503;-85
2022/05/13 01:26:41;;;;;;;8.25;2.53;;;14.30;63.70;;;;;;5115433;28;20202;-86
2022/05/13 01:29:07;;;;;;;6.93;3.00;;;14.40;63.70;;;;;;5115952;28;20214;-85
2022/05/13 01:31:36;;;;;;;7.18;2.95;;;14.40;64.40;;;;;;5116856;28;20175;-85
2022/05/13 01:34:08;;;;;;;7.80;3.00;;;14.30;63.70;;;;;;5115557;28;20183;-86
2022/05/13 01:36:35;;;;;;;6.63;3.00;;;14.30;63.80;;;;;;5119841;28;20224;-86
2022/05/13 01:39:01;;;;;;;6.35;2.97;;;14.40;63.80;;;;;;5119240;28;20261;-86
2022/05/13 01:41:28;;;;;;;11.23;4.07;;;14.40;63.90;;;;;;5125389;28;20175;-86
2022/05/13 01:43:55;;;;;;;11.27;3.38;;;14.50;64.10;;;;;;5128294;28;20205;-86
2022/05/13 01:46:22;;;;;;;6.07;2.88;;;14.40;64.00;;;;;;5124786;28;20175;-86
2022/05/13 01:48:49;;;;;;;15.40;3.25;;;14.40;64.20;;;;;;5123483;28;20203;-85
2022/05/13 01:51:15;;;;;;;9.23;3.28;;;14.40;64.20;;;;;;5117321;28;20171;-86
2022/05/13 01:53:41;;;;;;;15.50;3.88;;;14.40;64.40;;;;;;5099042;28;20694;-86
2022/05/13 01:56:07;;;;;;;10.83;3.03;;;14.40;64.50;;;;;;5095255;28;20282;-85
2022/05/13 01:58:33;;;;;;;11.30;3.30;;;14.40;64.50;;;;;;5093516;28;20440;-85
2022/05/13 02:00:59;;;;;;;12.13;3.88;;;14.40;64.70;;;;;;5095449;28;20430;-86
2022/05/13 02:03:44;;;;;;;11.23;3.05;;;14.40;64.60;;;;;;5076689;28;20275;-86
2022/05/13 02:06:25;;;;;;;11.52;3.33;;;14.40;64.90;;;;;;5095640;28;20243;-85
2022/05/13 02:08:54;;;;;;;9.70;3.70;;;14.40;64.90;;;;;;5094398;28;20200;-86
2022/05/13 02:11:21;;;;;;;7.20;2.63;;;14.40;65.10;;;;;;5092393;28;20180;-86
2022/05/13 02:13:49;;;;;;;14.10;3.42;;;14.40;64.90;;;;;;5112080;28;20239;-86
2022/05/13 02:16:15;;;;;;;16.63;4.03;;;14.30;65.10;;;;;;5113062;28;20297;-86
2022/05/13 02:18:42;;;;;;;11.53;4.20;;;14.30;65.50;;;;;;5116908;28;20210;-86
2022/05/13 02:21:08;;;;;;;13.73;3.22;;;14.30;65.40;;;;;;5125925;28;20508;-86
2022/05/13 02:23:34;;;;;;;11.73;3.25;;;14.20;65.70;;;;;;5127675;28;20195;-86
2022/05/13 02:26:03;;;;;;;10.13;3.72;;;14.30;66.00;;;;;;5126800;28;20183;-86
2022/05/13 02:28:32;;;;;;;11.35;2.70;;;14.20;66.10;;;;;;5116795;28;20203;-86
2022/05/13 02:31:01;;;;;;;12.90;4.55;;;14.10;66.20;;;;;;5116587;28;20183;-86
2022/05/13 02:33:29;;;;;;;8.60;3.95;;;14.10;66.50;;;;;;5116220;28;20175;-86
2022/05/13 02:35:55;;;;;;;16.25;4.35;;;14.00;66.50;;;;;;5117360;28;20209;-85
2022/05/13 02:38:21;;;;;;;10.57;5.07;;;14.00;66.80;;;;;;5115958;28;20195;-86
2022/05/13 02:43:31;;;;;;;13.60;4.18;;;13.90;67.10;;;;;;5117034;28;20439;-86
2022/05/13 02:45:58;;;;;;;18.70;4.50;;;13.90;67.50;;;;;;5115887;28;20213;-87
2022/05/13 02:48:26;;;;;;;11.20;3.95;;;13.80;67.70;;;;;;5117433;28;20527;-86
2022/05/13 02:50:52;;;;;;;6.90;3.30;;;13.80;68.00;;;;;;5117339;28;20206;-86
2022/05/13 02:53:18;;;;;;;10.93;4.15;;;13.80;68.10;;;;;;5115582;28;20688;-86
2022/05/13 02:55:44;;;;;;;11.73;3.95;;;13.80;68.40;;;;;;5116983;28;20190;-86
2022/05/13 02:58:10;;;;;;;8.03;3.20;;;13.70;68.40;;;;;;5116546;28;20175;-86
2022/05/13 03:00:36;;;;;;;11.70;3.30;;;13.70;68.50;;;;;;5115707;28;20309;-86
2022/05/13 03:03:04;;;;;;;17.15;4.57;;;13.70;68.60;;;;;;5117314;28;20745;-86
2022/05/13 03:05:30;;;;;;;10.38;3.40;;;13.70;68.70;;;;;;5115792;28;20270;-87
2022/05/13 03:08:00;;;;;;;13.70;3.20;;;13.70;68.70;;;;;;5115482;28;20198;-87
2022/05/13 03:10:26;;;;;;;16.15;4.15;;;13.80;68.70;;;;;;5117602;28;20458;-86
2022/05/13 03:12:52;;;;;;;10.67;3.70;;;13.80;68.50;;;;;;5118127;28;20179;-86
2022/05/13 03:15:17;;;;;;;12.20;3.40;;;13.80;68.40;;;;;;5119910;28;20242;-86
2022/05/13 03:17:43;;;;;;;16.10;3.10;;;13.80;68.40;;;;;;5131535;28;20282;-87
2022/05/13 03:20:13;;;;;;;11.53;3.37;;;13.80;68.40;;;;;;5132592;28;20198;-87
2022/05/13 03:22:39;;;;;;;10.70;3.72;;;13.80;69.10;;;;;;5130602;28;20262;-86
2022/05/13 03:25:05;;;;;;;6.80;3.90;;;13.80;68.40;;;;;;5116200;28;20210;-86
2022/05/13 03:27:31;;;;;;;9.05;3.10;;;13.80;68.40;;;;;;5115762;28;20178;-86
2022/05/13 03:29:57;;;;;;;12.18;3.60;;;13.80;68.40;;;;;;5114901;28;20242;-86
2022/05/13 03:32:23;;;;;;;10.32;3.78;;;13.80;68.60;;;;;;5116500;28;20700;-86
2022/05/13 03:34:49;;;;;;;10.43;3.57;;;13.90;68.50;;;;;;5115376;28;20183;-86
2022/05/13 03:37:15;;;;;;;8.53;3.27;;;13.90;68.40;;;;;;5115196;28;20646;-86
2022/05/13 03:39:50;;;;;;;7.33;2.77;;;13.80;68.40;;;;;;5116950;28;20413;-86
2022/05/13 03:42:16;;;;;;;7.22;3.53;;;13.80;68.60;;;;;;5115046;28;20175;-86
2022/05/13 03:44:43;;;;;;;14.03;3.77;;;13.80;68.70;;;;;;5115314;28;20182;-86
2022/05/13 03:47:08;;;;;;;8.82;3.40;;;13.80;68.70;;;;;;5114786;28;20647;-86
2022/05/13 03:49:34;;;;;;;13.43;4.73;;;13.70;68.80;;;;;;5115871;28;20210;-86
2022/05/13 03:52:01;;;;;;;10.70;3.42;;;13.70;69.20;;;;;;5116606;28;20447;-87
2022/05/13 03:54:26;;;;;;;9.82;3.78;;;13.70;69.30;;;;;;5118926;28;20186;-87
2022/05/13 03:56:52;;;;;;;11.43;3.90;;;13.70;69.30;;;;;;5120899;28;20206;-86
2022/05/13 03:59:18;;;;;;;8.67;3.93;;;13.60;69.40;;;;;;5117885;28;20511;-86
2022/05/13 04:01:57;;;;;;;17.00;4.40;;;13.60;69.50;;;;;;5115146;28;20462;-86
2022/05/13 04:04:27;;;;;;;17.48;4.47;;;13.60;69.70;;;;;;5115297;28;20404;-86
2022/05/13 04:09:37;;;;;;;12.95;3.83;;;13.60;69.90;;;;;;5117449;28;20677;-85
2022/05/13 04:17:31;;;;;;;11.25;3.90;;;13.50;70.40;;;;;;5124460;28;20240;-86
2022/05/13 04:20:00;;;;;;;15.27;4.40;;;13.60;70.50;;;;;;5124476;28;20183;-86
2022/05/13 04:22:26;;;;;;;14.15;4.60;;;13.60;70.60;;;;;;5121997;28;20205;-86
2022/05/13 04:24:52;;;;;;;7.03;2.97;;;13.60;70.50;;;;;;5114956;28;20183;-86
2022/05/13 04:27:18;;;;;;;9.98;3.45;;;13.70;70.50;;;;;;5115743;28;20437;-86
2022/05/13 04:29:44;;;;;;;10.45;3.22;;;13.70;70.50;;;;;;5114231;28;20198;-86
2022/05/13 04:32:10;;;;;;;10.53;4.90;;;13.70;70.50;;;;;;5114244;28;20184;-86
2022/05/13 04:34:36;;;;;;;16.05;4.60;;;13.70;70.40;;;;;;5114838;28;20422;-85
2022/05/13 04:37:02;;;;;;;15.15;3.85;;;13.70;70.50;;;;;;5115795;28;20194;-86
2022/05/13 04:39:29;;;;;;;8.05;3.88;;;13.90;70.70;;;;;;5115601;28;20206;-86
2022/05/13 04:44:39;;;;;;;12.02;4.85;;;13.90;70.40;;;;;;5118103;28;20444;-86
2022/05/13 04:50:08;;;;;;;10.18;4.72;;;14.00;70.30;;;;;;5124985;28;20490;-85
2022/05/13 04:52:34;;;;;;;14.17;3.87;;;14.00;70.20;;;;;;5129287;28;20206;-86
2022/05/13 04:55:00;;;;;;;11.30;4.40;;;14.10;70.20;;;;;;5132844;28;20417;-86
2022/05/13 04:57:26;;;;;;;11.50;3.80;;;14.10;70.40;;;;;;5124588;28;20448;-85
2022/05/13 04:59:52;;;;;;;14.60;5.15;;;14.20;70.30;;;;;;5122165;28;20191;-85
2022/05/13 05:02:17;;;;;;;11.60;3.80;;;14.30;70.10;;;;;;5122969;28;20191;-85
2022/05/13 05:04:43;;;;;;;13.93;5.07;;;14.40;69.70;;;;;;5128464;28;20167;-85
2022/05/13 05:07:09;;;;;;;7.90;4.00;;;14.50;69.50;;;;;;5124173;28;20201;-86
2022/05/13 05:09:41;;;;;;;13.03;4.23;;;14.70;69.10;;;;;;5120231;28;20199;-86
2022/05/13 05:12:09;;;;;;;7.35;4.70;;;14.80;68.70;;;;;;5116164;28;20249;-85
2022/05/13 05:14:35;;;;;;;11.52;4.65;;;14.90;68.40;;;;;;5115883;28;20179;-85
2022/05/13 05:17:01;;;;;;;14.02;5.55;;;15.00;68.00;;;;;;5116978;28;20222;-85
2022/05/13 05:19:27;;;;;;;10.43;4.68;;;15.00;68.00;;;;;;5116826;28;20195;-85
2022/05/13 05:21:53;;;;;;;12.00;5.70;;;15.00;68.00;;;;;;5118284;28;20174;-85
2022/05/13 05:24:19;;;;;;;13.17;5.00;;;15.00;67.80;;;;;;5115449;28;20167;-85
2022/05/13 05:26:45;;;;;;;14.20;4.70;;;14.90;68.10;;;;;;5119527;28;20424;-85
2022/05/13 05:29:13;;;;;;;8.47;4.40;;;14.80;68.40;;;;;;5117048;28;20721;-86
2022/05/13 05:31:39;;;;;;;11.23;5.13;;;14.90;68.80;;;;;;5116188;28;20905;-86
2022/05/13 05:34:10;;;;;;;14.85;4.75;;;14.90;68.80;;;;;;5115561;28;20186;-86
2022/05/13 05:36:36;;;;;;;11.75;5.13;;;14.90;68.80;;;;;;5117013;28;20190;-86
2022/05/13 05:39:02;;;;;;;16.70;4.70;;;15.00;68.50;;;;;;5117477;28;20197;-86
2022/05/13 05:41:28;;;;;;;18.27;5.10;;;15.00;68.80;;;;;;5118431;28;20181;-86
2022/05/13 05:43:54;;;;;;;11.97;5.20;;;14.90;69.20;;;;;;5119467;28;20203;-85
2022/05/13 05:46:19;;;;;;;16.00;5.70;;;14.90;69.30;;;;;;5125023;28;20224;-84
2022/05/13 05:48:45;;;;;;;14.10;5.80;;;14.80;69.40;;;;;;5104628;28;20453;-86
2022/05/13 05:51:11;;;;;;;9.20;5.20;;;14.90;69.50;;;;;;5131820;28;20469;-86
2022/05/13 05:59:09;;;;;;;24.00;5.80;;;14.90;69.70;;;;;;5118312;28;20291;-85
2022/05/13 06:01:49;;;;;;;18.50;6.60;;;15.00;69.60;;;;;;5117444;28;20643;-86
2022/05/13 06:04:14;;;;;;;17.95;5.93;;;15.00;69.50;;;;;;5098721;28;20166;-86
2022/05/13 06:06:40;;;;;;;11.00;5.30;;;15.10;69.30;;;;;;5097533;28;20223;-87
2022/05/13 06:09:08;;;;;;;15.10;6.53;;;15.10;69.80;;;;;;5097406;28;20245;-88
2022/05/13 06:11:34;;;;;;;21.75;7.55;;;15.10;69.00;;;;;;5106708;28;20179;-87
2022/05/13 06:14:00;;;;;;;12.90;6.63;;;15.20;69.20;;;;;;5118373;28;20191;-87
2022/05/13 06:16:27;;;;;;;13.47;5.90;;;15.20;69.30;;;;;;5119042;28;20260;-88
2022/05/13 06:18:54;;;;;;;20.27;7.70;;;15.30;69.20;;;;;;5121725;28;20191;-88
2022/05/13 06:21:20;;;;;;;16.08;7.20;;;15.40;69.10;;;;;;5132151;28;20183;-88
2022/05/13 06:23:46;;;;;;;13.55;7.68;;;15.50;68.30;;;;;;5121915;28;20179;-88
2022/05/13 06:26:12;;;;;;;11.97;8.00;;;15.60;68.00;;;;;;5123553;28;20209;-87
2022/05/13 06:28:38;;;;;;;14.47;7.77;;;15.80;68.10;;;;;;5118377;28;20437;-87
2022/05/13 06:31:04;;;;;;;22.00;6.87;;;16.10;67.60;;;;;;5119131;28;20179;-87
2022/05/13 06:33:34;;;;;;;15.30;7.95;;;16.20;66.40;;;;;;5121508;28;20939;-88
2022/05/13 06:35:59;;;;;;;15.32;7.00;;;16.20;66.10;;;;;;5118399;28;20278;-87
2022/05/13 06:38:25;;;;;;;17.57;8.90;;;16.40;65.80;;;;;;5116778;28;20222;-89
2022/05/13 06:40:53;;;;;;;18.40;8.33;;;16.60;65.20;;;;;;5117947;28;20171;-88
2022/05/13 06:43:20;;;;;;;16.83;8.38;;;16.60;65.20;;;;;;5117715;28;20417;-87
2022/05/13 06:45:47;;;;;;;14.52;7.40;;;16.50;64.90;;;;;;5117816;28;20179;-87
2022/05/13 06:48:13;;;;;;;17.55;7.93;;;16.60;64.80;;;;;;5119449;28;20218;-87
2022/05/13 06:50:42;;;;;;;21.80;8.00;;;16.50;65.00;;;;;;5120546;28;20182;-88
2022/05/13 06:53:08;;;;;;;21.13;9.35;;;16.90;64.60;;;;;;5125515;28;20178;-88
2022/05/13 06:55:34;;;;;;;20.07;7.77;;;17.00;64.10;;;;;;5117607;28;20179;-89
2022/05/13 06:58:00;;;;;;;15.20;8.30;;;17.30;63.70;;;;;;5099297;28;20681;-88
2022/05/13 07:00:25;;;;;;;13.80;5.60;;;17.30;62.40;;;;;;5117996;28;20273;-88
2022/05/13 07:02:51;;;;;;;19.67;7.60;;;17.60;61.70;;;;;;5117344;28;20420;-88
2022/05/13 07:05:20;;;;;;;14.73;7.05;;;17.60;61.00;;;;;;5123117;28;20412;-88
2022/05/13 07:07:46;;;;;;;19.83;8.90;;;17.80;61.30;;;;;;5127045;28;20173;-88
2022/05/13 07:10:12;;;;;;;20.70;9.30;;;17.80;61.10;;;;;;5126074;28;20199;-88
2022/05/13 07:12:39;;;;;;;24.83;7.32;;;17.80;61.80;;;;;;5124967;28;20175;-89
2022/05/13 07:15:08;;;;;;;19.67;7.22;;;18.00;61.00;;;;;;5117998;28;20696;-88
2022/05/13 07:17:53;;;;;;;10.18;5.68;;;18.20;59.90;;;;;;5118770;28;20207;-88
2022/05/13 07:20:19;;;;;;;16.23;5.35;;;18.60;58.50;;;;;;5117471;28;20195;-87
2022/05/13 07:22:45;;;;;;;18.00;5.50;;;18.50;58.30;;;;;;5116511;28;20528;-88
2022/05/13 07:25:11;;;;;;;23.97;7.30;;;18.50;58.10;;;;;;5115920;28;20420;-87
2022/05/13 07:27:37;;;;;;;20.80;6.63;;;18.10;58.10;;;;;;5115727;28;20258;-87
2022/05/13 07:30:04;;;;;;;13.93;5.70;;;17.90;59.20;;;;;;5115246;28;20241;-89
2022/05/13 07:32:30;;;;;;;8.38;4.40;;;17.90;60.00;;;;;;5115651;28;20197;-88
2022/05/13 07:34:55;;;;;;;17.03;5.53;;;17.80;60.00;;;;;;5117334;28;20180;-88
2022/05/13 07:37:21;;;;;;;20.63;6.30;;;17.60;60.30;;;;;;5115647;28;20198;-88
2022/05/13 07:42:31;;;;;;;15.70;5.40;;;17.60;59.90;;;;;;5117562;28;20313;-88
2022/05/13 07:44:56;;;;;;;14.77;7.27;;;17.50;60.40;;;;;;5098765;28;20274;-88
2022/05/13 07:47:22;;;;;;;17.07;5.83;;;17.30;60.70;;;;;;5126781;28;20171;-88
2022/05/13 07:49:48;;;;;;;5.87;4.20;;;17.20;61.10;;;;;;5121202;28;20191;-88
2022/05/13 07:52:14;;;;;;;17.20;5.47;;;17.10;61.40;;;;;;5125572;28;20219;-89
2022/05/13 07:54:41;;;;;;;8.18;4.85;;;17.40;60.60;;;;;;5122463;28;20274;-88
2022/05/13 07:57:07;;;;;;;14.35;5.32;;;17.30;60.40;;;;;;5116136;28;20210;-88
2022/05/13 08:00:24;;;;;;;15.97;5.47;;;17.30;60.70;;;;;;5116326;28;20195;-88
2022/05/13 08:02:19;;;;;;;11.68;4.82;;;17.40;60.40;;;;;;5117305;28;20393;-86
2022/05/13 08:04:45;;;;;;;15.43;5.13;;;17.50;60.30;;;;;;5118531;28;20194;-87
2022/05/13 08:07:11;;;;;;;17.42;5.18;;;17.50;59.80;;;;;;5123282;28;20413;-87
2022/05/13 08:09:37;;;;;;;14.43;4.27;;;17.50;59.70;;;;;;5122136;28;20207;-88
2022/05/13 08:12:15;;;;;;;10.13;3.90;;;17.50;59.20;;;;;;5115892;28;20231;-87
2022/05/13 08:14:41;;;;;;;23.98;5.00;;;17.50;58.30;;;;;;5117406;28;20539;-88
2022/05/13 08:17:07;;;;;;;10.27;5.07;;;17.40;58.50;;;;;;5116793;28;20207;-88
2022/05/13 08:19:32;;;;;;;7.93;4.37;;;17.30;58.80;;;;;;5116196;28;20198;-90
2022/05/13 08:21:58;;;;;;;15.17;5.00;;;17.20;59.10;;;;;;5116579;28;20409;-88
2022/05/13 08:24:24;;;;;;;9.33;4.50;;;17.20;59.30;;;;;;5133575;28;20175;-88
2022/05/13 08:26:49;;;;;;;8.77;4.33;;;17.10;59.70;;;;;;5134601;28;20406;-89
2022/05/13 08:29:15;;;;;;;13.33;4.70;;;17.10;59.40;;;;;;5133213;28;20199;-87
2022/05/13 08:31:41;;;;;;;18.27;4.10;;;17.10;58.80;;;;;;5116307;28;20206;-89
2022/05/13 08:34:07;;;;;;;10.23;3.50;;;17.10;58.80;;;;;;5116299;28;20175;-87
2022/05/13 08:36:34;;;;;;;15.45;3.92;;;17.30;58.50;;;;;;5116144;28;20657;-88
2022/05/13 08:39:00;;;;;;;9.63;3.60;;;17.40;57.90;;;;;;5115696;28;20203;-88
2022/05/13 08:41:54;;;;;;;11.37;3.80;;;17.40;57.10;;;;;;5115768;28;20661;-89
2022/05/13 08:44:20;;;;;;;12.50;3.63;;;17.50;56.80;;;;;;5115474;28;20175;-88
2022/05/13 08:47:14;;;;;;;7.78;3.65;;;17.50;57.00;;;;;;5115530;28;20183;-88
2022/05/13 08:50:12;;;;;;;9.57;3.97;;;17.50;55.40;;;;;;5116794;28;20191;-88
2022/05/13 08:53:06;;;;;;;7.43;3.40;;;17.40;54.20;;;;;;5113665;28;20187;-88
2022/05/13 08:56:09;;;;;;;11.00;3.78;;;17.40;54.20;;;;;;5116770;28;20162;-89
2022/05/13 08:58:42;;;;;;;14.80;3.83;;;17.60;54.20;;;;;;5116701;28;20198;-88
2022/05/13 09:01:14;;;;;;;9.73;3.40;;;17.90;54.40;;;;;;5114798;28;20183;-88
2022/05/13 09:03:50;;;;;;;11.90;3.10;;;18.20;53.30;;;;;;5114686;28;20185;-88
2022/05/13 09:06:42;;;;;;;6.80;3.60;;;18.40;52.30;;;;;;5115075;28;20194;-88
2022/05/13 09:09:11;;;;;;;7.68;3.08;;;18.30;51.60;;;;;;5115820;28;20210;-88
2022/05/13 09:12:04;;;;;;;7.88;3.97;;;18.30;52.00;;;;;;5118294;28;20318;-88
2022/05/13 09:14:49;;;;;;;10.32;3.90;;;18.60;51.70;;;;;;5124779;28;20590;-89
2022/05/13 09:17:21;;;;;;;7.32;3.85;;;18.60;50.50;;;;;;5124158;28;20207;-89
2022/05/13 09:19:58;;;;;;;10.88;3.58;;;18.60;50.40;;;;;;5119630;28;20199;-88
2022/05/13 09:22:52;;;;;;;9.52;3.45;;;18.60;50.30;;;;;;5123970;28;20167;-88
2022/05/13 09:25:45;;;;;;;7.10;3.53;;;18.90;50.60;;;;;;5115094;28;20175;-88
2022/05/13 09:28:16;;;;;;;10.57;3.55;;;18.90;50.20;;;;;;5108552;28;20183;-89
2022/05/13 09:30:48;;;;;;;8.57;3.42;;;18.80;49.90;;;;;;5115201;28;20179;-88
2022/05/13 09:33:20;;;;;;;10.00;3.35;;;18.70;49.50;;;;;;5118871;28;20151;-88
2022/05/13 09:35:48;;;;;;;12.18;3.50;;;18.80;50.10;;;;;;5120790;28;20183;-89
2022/05/13 09:38:17;;;;;;;9.30;3.55;;;19.00;49.90;;;;;;5121294;28;20176;-88
2022/05/13 09:40:57;;;;;;;5.28;3.00;;;19.20;48.70;;;;;;5120535;28;20206;-88
2022/05/13 09:43:50;;;;;;;14.83;3.50;;;19.10;48.60;;;;;;5120091;28;20167;-88
2022/05/13 09:46:47;;;;;;;6.57;3.50;;;19.30;48.90;;;;;;5120767;28;20413;-89
2022/05/13 09:49:33;;;;;;;10.57;3.60;;;19.40;48.50;;;;;;5121801;28;20229;-89
2022/05/13 09:52:31;;;;;;;5.97;3.33;;;19.30;48.50;;;;;;5120447;28;20662;-87
2022/05/13 09:55:23;;;;;;;11.20;4.30;;;19.30;49.10;;;;;;5121543;28;20417;-87
2022/05/13 09:57:51;;;;;;;9.37;3.80;;;19.60;48.40;;;;;;5123180;28;20452;-87
2022/05/13 10:00:25;;;;;;;6.63;4.23;;;19.60;47.80;;;;;;5119922;28;20440;-87
2022/05/13 10:03:19;;;;;;;8.40;3.53;;;19.50;46.90;;;;;;5121937;28;20415;-87
2022/05/13 10:06:11;;;;;;;5.87;3.07;;;19.70;47.50;;;;;;5125915;28;20455;-87
2022/05/13 10:14:39;;;;;;;6.17;3.77;;;20.10;46.60;;;;;;5127452;28;20388;-87
2022/05/13 10:17:14;;;;;;;10.00;3.60;;;19.90;46.50;;;;;;5129134;28;20456;-87
2022/05/13 10:19:51;;;;;;;8.93;3.30;;;19.60;46.80;;;;;;5129987;28;20523;-88
2022/05/13 10:22:28;;;;;;;7.80;3.43;;;19.50;47.90;;;;;;5129531;28;20413;-87
2022/05/13 10:24:57;;;;;;;6.93;3.40;;;19.70;48.20;;;;;;5133675;28;20396;-88
2022/05/13 10:27:36;;;;;;;8.77;3.53;;;19.80;47.10;;;;;;5132178;28;20416;-87
2022/05/13 10:30:17;;;;;;;6.57;3.60;;;19.80;46.90;;;;;;5130733;28;20440;-88
2022/05/13 10:33:08;;;;;;;7.03;3.63;;;19.80;46.30;;;;;;5130642;28;20425;-88
2022/05/13 10:35:52;;;;;;;12.60;4.60;;;19.70;46.30;;;;;;5129145;28;20421;-88
2022/05/13 10:38:46;;;;;;;11.10;4.20;;;19.60;46.70;;;;;;5123583;28;20488;-87
2022/05/13 10:41:30;;;;;;;21.87;5.70;;;19.50;47.20;;;;;;5118762;28;20500;-87
2022/05/13 10:44:02;;;;;;;6.87;3.97;;;19.50;47.10;;;;;;5121047;28;20408;-88
2022/05/13 10:47:02;;;;;;;7.73;3.20;;;19.50;47.20;;;;;;5119346;28;20512;-87
2022/05/13 10:49:34;;;;;;;12.83;5.00;;;19.70;46.90;;;;;;5107266;28;20520;-87
2022/05/13 10:52:18;;;;;;;10.13;4.40;;;19.90;46.60;;;;;;5118693;28;20401;-89
2022/05/13 10:55:06;;;;;;;11.13;4.57;;;19.80;46.30;;;;;;5122576;28;20431;-90
2022/05/13 10:57:43;;;;;;;11.97;4.90;;;19.80;46.10;;;;;;5138331;28;20425;-87
2022/05/13 11:00:20;;;;;;;7.33;4.40;;;19.70;46.40;;;;;;5137951;28;20452;-87
2022/05/13 11:03:01;;;;;;;12.40;4.63;;;19.60;47.10;;;;;;5125041;28;20511;-88
2022/05/13 11:05:27;;;;;;;11.20;5.03;;;19.50;47.80;;;;;;5117305;28;20782;-87
2022/05/13 11:08:23;;;;;;;9.13;4.03;;;19.40;47.70;;;;;;5117155;28;20182;-88
2022/05/13 11:11:07;;;;;;;8.20;5.37;;;19.60;48.00;;;;;;5117632;28;20183;-87
2022/05/13 11:14:07;;;;;;;11.00;4.70;;;19.60;47.00;;;;;;5123181;28;20404;-88
2022/05/13 11:17:09;;;;;;;8.63;4.50;;;19.60;46.60;;;;;;5124407;28;20535;-87
2022/05/13 11:19:57;;;;;;;8.80;4.30;;;19.80;47.20;;;;;;5100859;28;20467;-89
2022/05/13 11:22:30;;;;;;;11.27;4.70;;;20.00;46.40;;;;;;5119646;28;20390;-87
2022/05/13 11:28:04;;;;;;;4.50;4.10;;;20.00;45.80;;;;;;5118391;28;20384;-87
2022/05/13 11:30:43;;;;;;;7.43;4.90;;;20.10;46.00;;;;;;5116343;28;20421;-87
2022/05/13 11:33:47;;;;;;;7.47;4.90;;;20.20;45.50;;;;;;5117244;28;20417;-87
2022/05/13 11:36:25;;;;;;;6.83;3.90;;;20.20;45.30;;;;;;5093123;28;20448;-87
2022/05/13 11:39:02;;;;;;;8.63;3.83;;;20.40;45.50;;;;;;5118015;28;20428;-88
2022/05/13 11:41:45;;;;;;;11.33;3.60;;;20.50;45.20;;;;;;5121273;28;20389;-87
2022/05/13 11:44:14;;;;;;;12.70;3.73;;;20.50;45.20;;;;;;5123867;28;20467;-87
2022/05/13 11:46:56;;;;;;;9.13;3.63;;;20.30;44.60;;;;;;5127707;28;20464;-88
2022/05/13 11:49:30;;;;;;;7.73;2.70;;;20.40;44.70;;;;;;5128332;28;20433;-90
2022/05/13 11:52:03;;;;;;;30.80;4.70;;;20.60;44.40;;;;;;5121164;28;20421;-87
2022/05/13 11:54:30;;;;;;;6.67;2.50;;;21.00;42.90;;;;;;5116850;28;20467;-88
2022/05/13 11:57:23;;;;;;;8.37;2.50;;;21.00;43.30;;;;;;5114685;28;20461;-87
2022/05/13 11:59:52;;;;;;;7.17;3.33;;;21.20;43.10;;;;;;5116438;28;20437;-88
2022/05/13 12:02:32;;;;;;;4.20;2.53;;;21.50;42.70;;;;;;5118653;28;20402;-88
2022/05/13 12:05:26;;;;;;;6.00;2.30;;;21.40;42.50;;;;;;5115682;28;20409;-88
2022/05/13 12:08:07;;;;;;;5.87;2.10;;;21.20;42.30;;;;;;5113751;28;20409;-87
2022/05/13 12:11:02;;;;;;;9.63;3.90;;;21.20;42.50;;;;;;5117469;28;20423;-88
2022/05/13 12:13:44;;;;;;;9.33;3.07;;;21.50;41.60;;;;;;5117841;28;20417;-87
2022/05/13 12:16:28;;;;;;;7.37;2.10;;;21.30;41.90;;;;;;5119468;28;20460;-87
2022/05/13 12:19:32;;;;;;;6.43;2.60;;;21.40;42.10;;;;;;5117177;28;20439;-87
2022/05/13 12:22:29;;;;;;;8.37;2.60;;;21.40;42.30;;;;;;5116007;28;20417;-88
2022/05/13 12:25:08;;;;;;;11.50;3.10;;;21.40;41.30;;;;;;5115238;28;20421;-87
2022/05/13 12:27:35;;;;;;;8.03;2.60;;;21.40;42.00;;;;;;5116054;28;20420;-88
2022/05/13 12:30:12;;;;;;;9.00;2.90;;;21.30;42.40;;;;;;5115308;28;20417;-89
2022/05/13 12:32:46;;;;;;;9.13;2.47;;;21.20;43.20;;;;;;5115624;28;20833;-88
2022/05/13 12:38:07;;;;;;;4.90;2.40;;;21.10;42.20;;;;;;5120992;28;20815;-87
2022/05/13 12:40:55;;;;;;;9.83;2.80;;;21.00;42.30;;;;;;5116376;28;20406;-87
2022/05/13 12:43:31;;;;;;;4.20;2.07;;;21.10;43.00;;;;;;5116257;28;20808;-87
2022/05/13 12:46:12;;;;;;;4.47;2.43;;;21.50;42.70;;;;;;5117021;28;20396;-87
2022/05/13 12:49:04;;;;;;;10.50;2.40;;;21.60;42.50;;;;;;5115607;28;20436;-87
2022/05/13 12:52:11;;;;;;;5.00;2.17;;;21.80;42.50;;;;;;5116095;28;20404;-87
2022/05/13 12:54:50;;;;;;;6.33;2.33;;;21.90;42.00;;;;;;5115871;28;20527;-87
2022/05/13 12:57:27;;;;;;;9.87;2.80;;;22.20;39.90;;;;;;5120872;28;20452;-88
2022/05/13 12:59:54;;;;;;;8.53;2.30;;;22.00;41.00;;;;;;5118844;28;20821;-88
2022/05/13 13:02:27;;;;;;;3.60;2.10;;;22.00;41.40;;;;;;5117447;28;20417;-88
2022/05/13 13:05:04;;;;;;;13.17;2.80;;;22.20;40.30;;;;;;5114948;28;20405;-88
2022/05/13 13:07:34;;;;;;;6.73;2.40;;;21.90;40.20;;;;;;5097714;28;20459;-87
2022/05/13 13:10:00;;;;;;;4.33;2.30;;;21.50;40.60;;;;;;5115812;28;20460;-87
2022/05/13 13:13:10;;;;;;;11.40;2.50;;;21.10;41.60;;;;;;5114974;28;20440;-87
2022/05/13 13:15:40;;;;;;;3.80;2.00;;;20.90;42.70;;;;;;5089743;28;20456;-87
2022/05/13 13:18:11;;;;;;;8.17;2.10;;;21.00;43.30;;;;;;5120422;28;20477;-87
2022/05/13 13:21:00;;;;;;;4.23;2.67;;;21.20;43.10;;;;;;5120474;28;20488;-87
2022/05/13 13:23:33;;;;;;;17.97;3.10;;;21.20;43.50;;;;;;5122786;28;20385;-88
2022/05/13 13:26:00;;;;;;;7.03;2.50;;;21.10;43.40;;;;;;5129834;28;20480;-88
2022/05/13 13:28:32;;;;;;;4.20;1.80;;;21.40;42.60;;;;;;5135798;28;20480;-89
2022/05/13 13:30:58;;;;;;;4.80;2.10;;;21.30;42.30;;;;;;5132286;28;20413;-88
2022/05/13 13:33:26;;;;;;;9.90;2.07;;;21.50;42.70;;;;;;5121383;28;20397;-87
2022/05/13 13:36:13;;;;;;;5.30;2.60;;;21.40;42.20;;;;;;5116094;28;20181;-88
2022/05/13 13:38:45;;;;;;;8.53;1.80;;;21.50;42.60;;;;;;5124880;28;20451;-87
2022/05/13 13:41:39;;;;;;;6.83;2.47;;;21.30;42.30;;;;;;5117604;28;20939;-87